Thunder radar more information blitzortung!


Löydät sääaseman tiedot myös:

European Weather Network

Finland Weather Exchange

Weather Underground

AWEKAS



Weather Underground säähistoriasivu

Päivittäin yhteenveto Lokakuu 10, 2017 Yksiköt:  Englantilaiset    Metriset   Molemmat
« Edellinen Päivä
Seuraava Päivä »
Päivittäin Viikoittain Kuukausittain Vuosittain Mukautettu
  Korkea: Matala: Keskiarvo:
Lämpötila: TemperatureC °F 4.8 °F 6.5 °F
Kastepiste: DewpointC °F 4.5 °F 6.1 °F
Kosteus: Humidity % 93 % 96 %
Tuulen nopeus: WindSpeedKMH mph 0.0 mph 0 mph
Tuulenpuuska: WindSpeedGustKMH mph - -
Tuuli:- - North
Ilmanpaine: PressurehPa in 996.8 in -
Sade: 0.0 in    
Historical Graphs
 
 
Taulukkotiedot Lokakuu 10, 2017
Aika Lämpötila Kastepiste Ilmanpaine Tuuli Tuulen nopeus Tuulenpuuska Kosteus Sademäärä (tunneittain)
TemperatureC °F DewpointC °F PressurehPa in Calm     Humidity % HourlyPrecipMM in
00:00 7.0 °F 5.9 °F 1007.3 in Calm     93 % 0.0 in
00:15 6.9 °F 5.9 °F 1007.0 in Calm     93 % 0.0 in
00:30 6.9 °F 6.0 °F 1006.7 in Calm     94 % 0.0 in
00:45 6.9 °F 5.9 °F 1006.7 in Calm     93 % 0.0 in
01:00 6.9 °F 5.9 °F 1006.3 in Calm     93 % 0.0 in
01:15 6.9 °F 5.9 °F 1006.0 in Calm     93 % 0.0 in
01:30 7.0 °F 5.9 °F 1006.0 in Calm     93 % 0.0 in
01:45 6.9 °F 5.9 °F 1005.6 in Calm     93 % 0.0 in
02:00 6.9 °F 5.8 °F 1005.6 in Calm     93 % 0.0 in
02:15 6.7 °F 5.8 °F 1005.3 in Calm     94 % 0.0 in
02:30 6.7 °F 5.9 °F 1005.0 in Calm     95 % 0.0 in
02:45 6.5 °F 5.8 °F 1005.0 in Calm     95 % 0.0 in
03:00 6.4 °F 5.8 °F 1004.6 in Calm     96 % 0.0 in
03:15 6.3 °F 5.7 °F 1004.3 in Calm     96 % 0.0 in
03:30 6.3 °F 5.7 °F 1004.3 in Calm     96 % 0.0 in
03:45 6.2 °F 5.8 °F 1003.9 in Calm     97 % 0.0 in
04:00 6.2 °F 5.7 °F 1003.6 in Calm     97 % 0.0 in
04:15 6.1 °F 5.7 °F 1003.6 in Calm     97 % 0.0 in
04:30 6.1 °F 5.6 °F 1003.3 in Calm     97 % 0.0 in
04:45 6.1 °F 5.6 °F 1002.9 in Calm     97 % 0.0 in
05:00 5.9 °F 5.5 °F 1002.6 in Calm     97 % 0.0 in
05:15 5.9 °F 5.4 °F 1002.6 in Calm     97 % 0.0 in
05:30 5.8 °F 5.4 °F 1002.3 in Calm     97 % 0.0 in
05:45 5.8 °F 5.3 °F 1002.3 in Calm     97 % 0.0 in
06:00 5.7 °F 5.4 °F 1001.9 in Calm     98 % 0.0 in
06:45 5.6 °F 5.3 °F 1001.2 in Calm     98 % 0.0 in
07:00 5.6 °F 5.3 °F 1001.2 in Calm     98 % 0.0 in
07:15 5.6 °F 5.3 °F 1000.9 in Calm     98 % 0.0 in
07:30 5.6 °F 5.3 °F 1000.9 in Calm     98 % 0.0 in
07:45 5.6 °F 5.3 °F 1000.6 in Calm     98 % 0.0 in
08:00 5.5 °F 5.2 °F 1000.6 in Calm     98 % 0.0 in
08:15 5.5 °F 5.2 °F 1000.2 in Calm     98 % 0.0 in
08:30 5.5 °F 5.2 °F 999.9 in Calm     98 % 0.0 in
08:45 5.6 °F 5.3 °F 999.9 in Calm     98 % 0.0 in
09:00 5.6 °F 5.3 °F 999.9 in Calm     98 % 0.0 in
09:15 5.6 °F 5.3 °F 999.5 in Calm     98 % 0.0 in
09:30 5.7 °F 5.4 °F 999.5 in Calm     98 % 0.0 in
09:45 5.7 °F 5.4 °F 999.2 in Calm     98 % 0.0 in
10:00 5.8 °F 5.5 °F 999.2 in Calm     98 % 0.0 in
10:15 5.9 °F 5.6 °F 999.2 in Calm     98 % 0.0 in
10:30 5.9 °F 5.7 °F 998.9 in Calm     98 % 0.0 in
10:45 6.1 °F 5.8 °F 998.9 in Calm     98 % 0.0 in
11:00 6.1 °F 5.8 °F 998.9 in Calm     98 % 0.0 in
11:15 6.2 °F 5.9 °F 998.5 in Calm     98 % 0.0 in
11:30 6.3 °F 6.0 °F 998.5 in Calm     98 % 0.0 in
11:45 6.4 °F 6.1 °F 998.5 in Calm     98 % 0.0 in
12:00 6.4 °F 6.2 °F 998.2 in Calm     98 % 0.0 in
12:15 6.5 °F 6.2 °F 998.2 in Calm     98 % 0.0 in
12:30 6.6 °F 6.3 °F 998.2 in Calm     98 % 0.0 in
12:45 6.7 °F 6.4 °F 997.9 in Calm     98 % 0.0 in
13:00 6.7 °F 6.4 °F 997.9 in Calm     98 % 0.0 in
13:15 6.8 °F 6.7 °F 997.5 in Calm     99 % 0.0 in
13:30 6.9 °F 6.8 °F 997.5 in Calm     99 % 0.0 in
13:45 7.0 °F 6.7 °F 997.2 in Calm     98 % 0.0 in
14:00 7.2 °F 6.9 °F 997.2 in Calm     98 % 0.0 in
14:15 7.2 °F 7.1 °F 997.2 in Calm     99 % 0.0 in
14:30 7.3 °F 7.0 °F 996.8 in Calm     98 % 0.0 in
14:45 7.4 °F 7.1 °F 996.8 in Calm     98 % 0.0 in
15:00 7.6 °F 7.5 °F 996.8 in Calm     99 % 0.0 in
15:15 7.7 °F 7.4 °F 996.8 in Calm     98 % 0.0 in
15:30 7.8 °F 7.6 °F 996.8 in Calm     99 % 0.0 in
15:45 7.9 °F 7.7 °F 996.8 in Calm     99 % 0.0 in
16:00 8.1 °F 8.0 °F 996.8 in Calm     99 % 0.0 in
16:15 8.2 °F 8.1 °F 996.8 in Calm     99 % 0.0 in
16:30 8.3 °F 8.2 °F 996.8 in Calm     99 % 0.0 in
16:45 8.5 °F 8.4 °F 996.8 in Calm     99 % 0.0 in
17:00 8.4 °F 8.3 °F 996.8 in Calm     99 % 0.0 in
17:15 8.4 °F 8.2 °F 996.8 in Calm     99 % 0.0 in
17:30 8.3 °F 8.2 °F 997.2 in Calm     99 % 0.0 in
17:45 8.3 °F 8.1 °F 997.2 in Calm     99 % 0.0 in
18:00 8.1 °F 8.0 °F 997.2 in Calm     99 % 0.0 in
18:15 7.9 °F 7.7 °F 997.5 in Calm     99 % 0.0 in
18:30 7.7 °F 7.4 °F 997.5 in Calm     98 % 0.0 in
18:45 7.5 °F 7.2 °F 997.5 in Calm     98 % 0.0 in
19:00 7.3 °F 7.0 °F 997.9 in Calm     98 % 0.0 in
19:15 7.1 °F 6.8 °F 997.9 in Calm     98 % 0.0 in
19:30 6.9 °F 6.7 °F 997.9 in Calm     98 % 0.0 in
20:00 6.8 °F 6.5 °F 998.2 in Calm     98 % 0.0 in
20:15 6.8 °F 6.5 °F 998.2 in Calm     98 % 0.0 in
20:30 6.7 °F 6.4 °F 998.2 in Calm     98 % 0.0 in
20:45 6.7 °F 6.4 °F 998.2 in Calm     98 % 0.0 in
21:00 6.6 °F 6.3 °F 998.2 in Calm     98 % 0.0 in
21:15 6.4 °F 6.2 °F 998.2 in Calm     98 % 0.0 in
21:30 6.3 °F 6.0 °F 998.2 in Calm     98 % 0.0 in
21:45 6.2 °F 5.9 °F 998.5 in Calm     98 % 0.0 in
22:00 5.9 °F 5.7 °F 998.5 in Calm     98 % 0.0 in
22:15 5.7 °F 5.4 °F 998.5 in Calm     98 % 0.0 in
22:30 5.4 °F 5.1 °F 998.9 in Calm     98 % 0.0 in
22:45 5.3 °F 5.0 °F 998.5 in Calm     98 % 0.0 in
23:00 5.3 °F 5.0 °F 998.5 in Calm     98 % 0.0 in
23:15 5.2 °F 4.9 °F 998.5 in Calm     98 % 0.0 in
23:30 4.9 °F 4.7 °F 998.5 in Calm     98 % 0.0 in
23:45 4.8 °F 4.5 °F 998.5 in Calm     98 % 0.0 in
Esan sääasema
Terveisin Weather Underground - 2.75 mb

Alkuperäinen skripti  Jim McMurry - jmcmurry@mwt.net Sovitettu myös templatelle  Wim van der Kuil - Leuven-Template.eu

Laitteet joita käytämme:

Sääasema
Davis VP2

Sääasemaohjelma
Cumulus

Sääaseman tietokone
Asus EeePC

Palveluntarjoaja
Suncomet

Davis VP2

Cumulus

Asus EeePC

Suncomet